sensor_id;sensor_type;location;lat;lon;timestamp;P1;durP1;ratioP1;P2;durP2;ratioP2
54464;SDS011;40374;49.480;20.016;2023-06-26T00:02:05;18.85;;;9.57;;
54464;SDS011;40374;49.480;20.016;2023-06-26T00:04:46;17.10;;;9.43;;
54464;SDS011;40374;49.480;20.016;2023-06-26T00:07:34;18.98;;;8.95;;
54464;SDS011;40374;49.480;20.016;2023-06-26T00:10:20;16.15;;;7.45;;
54464;SDS011;40374;49.480;20.016;2023-06-26T00:13:11;18.83;;;6.97;;
54464;SDS011;40374;49.480;20.016;2023-06-26T00:15:43;13.32;;;6.97;;
54464;SDS011;40374;49.480;20.016;2023-06-26T00:18:38;20.50;;;6.45;;
54464;SDS011;40374;49.480;20.016;2023-06-26T00:21:14;12.18;;;7.00;;
54464;SDS011;40374;49.480;20.016;2023-06-26T00:23:51;9.30;;;7.07;;
54464;SDS011;40374;49.480;20.016;2023-06-26T00:26:29;13.48;;;6.90;;
54464;SDS011;40374;49.480;20.016;2023-06-26T00:29:04;10.77;;;6.32;;
54464;SDS011;40374;49.480;20.016;2023-06-26T00:34:42;16.08;;;7.47;;
54464;SDS011;40374;49.480;20.016;2023-06-26T00:37:48;19.85;;;7.95;;
54464;SDS011;40374;49.480;20.016;2023-06-26T00:40:41;13.57;;;7.32;;
54464;SDS011;40374;49.480;20.016;2023-06-26T00:43:25;11.48;;;7.47;;
54464;SDS011;40374;49.480;20.016;2023-06-26T00:46:04;15.68;;;8.02;;
54464;SDS011;40374;49.480;20.016;2023-06-26T00:48:45;19.92;;;7.70;;
54464;SDS011;40374;49.480;20.016;2023-06-26T00:51:31;12.70;;;8.75;;
54464;SDS011;40374;49.480;20.016;2023-06-26T00:58:06;22.67;;;9.75;;
54464;SDS011;40374;49.480;20.016;2023-06-26T01:01:14;14.18;;;8.77;;
54464;SDS011;40374;49.480;20.016;2023-06-26T01:03:51;18.25;;;8.88;;
54464;SDS011;40374;49.480;20.016;2023-06-26T01:07:06;15.93;;;8.93;;
54464;SDS011;40374;49.480;20.016;2023-06-26T01:09:57;16.25;;;9.68;;
54464;SDS011;40374;49.480;20.016;2023-06-26T01:12:35;19.80;;;9.35;;
54464;SDS011;40374;49.480;20.016;2023-06-26T01:15:10;16.17;;;8.00;;
54464;SDS011;40374;49.480;20.016;2023-06-26T01:17:45;21.13;;;8.82;;
54464;SDS011;40374;49.480;20.016;2023-06-26T01:20:36;18.30;;;8.85;;
54464;SDS011;40374;49.480;20.016;2023-06-26T01:27:15;15.88;;;9.32;;
54464;SDS011;40374;49.480;20.016;2023-06-26T01:29:49;15.10;;;8.50;;
54464;SDS011;40374;49.480;20.016;2023-06-26T01:32:39;15.10;;;8.95;;
54464;SDS011;40374;49.480;20.016;2023-06-26T01:36:01;20.85;;;7.75;;
54464;SDS011;40374;49.480;20.016;2023-06-26T01:39:08;13.88;;;7.97;;
54464;SDS011;40374;49.480;20.016;2023-06-26T01:42:07;12.30;;;7.22;;
54464;SDS011;40374;49.480;20.016;2023-06-26T01:45:00;21.80;;;6.72;;
54464;SDS011;40374;49.480;20.016;2023-06-26T01:47:59;13.98;;;7.57;;
54464;SDS011;40374;49.480;20.016;2023-06-26T01:50:36;11.85;;;6.35;;
54464;SDS011;40374;49.480;20.016;2023-06-26T01:53:21;15.52;;;7.00;;
54464;SDS011;40374;49.480;20.016;2023-06-26T01:56:14;10.73;;;6.50;;
54464;SDS011;40374;49.480;20.016;2023-06-26T01:58:58;9.95;;;6.75;;
54464;SDS011;40374;49.480;20.016;2023-06-26T02:01:43;13.38;;;7.07;;
54464;SDS011;40374;49.480;20.016;2023-06-26T02:04:59;9.88;;;6.35;;
54464;SDS011;40374;49.480;20.016;2023-06-26T02:07:34;12.73;;;7.47;;
54464;SDS011;40374;49.480;20.016;2023-06-26T02:10:34;15.38;;;7.88;;
54464;SDS011;40374;49.480;20.016;2023-06-26T02:13:17;14.75;;;8.73;;
54464;SDS011;40374;49.480;20.016;2023-06-26T02:16:04;21.52;;;9.05;;
54464;SDS011;40374;49.480;20.016;2023-06-26T02:18:42;12.98;;;7.57;;
54464;SDS011;40374;49.480;20.016;2023-06-26T02:21:41;14.82;;;8.60;;
54464;SDS011;40374;49.480;20.016;2023-06-26T02:24:28;21.13;;;9.80;;
54464;SDS011;40374;49.480;20.016;2023-06-26T02:27:11;24.42;;;11.30;;
54464;SDS011;40374;49.480;20.016;2023-06-26T02:29:39;20.75;;;10.20;;
54464;SDS011;40374;49.480;20.016;2023-06-26T02:32:47;11.88;;;7.50;;
54464;SDS011;40374;49.480;20.016;2023-06-26T02:38:26;17.45;;;7.22;;
54464;SDS011;40374;49.480;20.016;2023-06-26T02:41:07;15.63;;;7.43;;
54464;SDS011;40374;49.480;20.016;2023-06-26T02:43:59;11.23;;;7.40;;
54464;SDS011;40374;49.480;20.016;2023-06-26T02:46:42;9.40;;;6.43;;
54464;SDS011;40374;49.480;20.016;2023-06-26T02:49:25;14.82;;;6.78;;
54464;SDS011;40374;49.480;20.016;2023-06-26T02:52:06;12.02;;;6.95;;
54464;SDS011;40374;49.480;20.016;2023-06-26T02:55:23;12.82;;;7.18;;
54464;SDS011;40374;49.480;20.016;2023-06-26T02:58:08;11.48;;;7.32;;
54464;SDS011;40374;49.480;20.016;2023-06-26T03:00:42;15.68;;;7.93;;
54464;SDS011;40374;49.480;20.016;2023-06-26T03:03:57;15.02;;;7.75;;
54464;SDS011;40374;49.480;20.016;2023-06-26T03:06:38;12.88;;;6.90;;
54464;SDS011;40374;49.480;20.016;2023-06-26T03:09:30;11.32;;;7.47;;
54464;SDS011;40374;49.480;20.016;2023-06-26T03:12:15;11.10;;;6.82;;
54464;SDS011;40374;49.480;20.016;2023-06-26T03:14:50;14.25;;;7.47;;
54464;SDS011;40374;49.480;20.016;2023-06-26T03:17:45;14.15;;;7.22;;
54464;SDS011;40374;49.480;20.016;2023-06-26T03:20:25;13.48;;;7.50;;
54464;SDS011;40374;49.480;20.016;2023-06-26T03:23:54;21.98;;;8.95;;
54464;SDS011;40374;49.480;20.016;2023-06-26T03:26:41;16.50;;;9.30;;
54464;SDS011;40374;49.480;20.016;2023-06-26T03:29:27;15.60;;;9.50;;
54464;SDS011;40374;49.480;20.016;2023-06-26T03:32:11;14.88;;;8.70;;
54464;SDS011;40374;49.480;20.016;2023-06-26T03:34:45;19.75;;;9.35;;
54464;SDS011;40374;49.480;20.016;2023-06-26T03:37:39;16.00;;;8.80;;
54464;SDS011;40374;49.480;20.016;2023-06-26T03:40:22;19.20;;;9.05;;
54464;SDS011;40374;49.480;20.016;2023-06-26T03:42:57;13.18;;;8.05;;
54464;SDS011;40374;49.480;20.016;2023-06-26T03:45:37;11.60;;;7.20;;
54464;SDS011;40374;49.480;20.016;2023-06-26T03:48:19;15.20;;;7.63;;
54464;SDS011;40374;49.480;20.016;2023-06-26T03:50:56;14.35;;;8.00;;
54464;SDS011;40374;49.480;20.016;2023-06-26T03:53:40;18.35;;;7.80;;
54464;SDS011;40374;49.480;20.016;2023-06-26T03:56:11;16.23;;;8.52;;
54464;SDS011;40374;49.480;20.016;2023-06-26T03:58:44;14.80;;;8.10;;
54464;SDS011;40374;49.480;20.016;2023-06-26T04:01:21;17.17;;;8.18;;
54464;SDS011;40374;49.480;20.016;2023-06-26T04:03:56;13.07;;;8.77;;
54464;SDS011;40374;49.480;20.016;2023-06-26T04:06:26;15.05;;;8.77;;
54464;SDS011;40374;49.480;20.016;2023-06-26T04:09:02;14.23;;;8.48;;
54464;SDS011;40374;49.480;20.016;2023-06-26T04:11:32;18.33;;;8.98;;
54464;SDS011;40374;49.480;20.016;2023-06-26T04:13:59;17.02;;;9.88;;
54464;SDS011;40374;49.480;20.016;2023-06-26T04:16:28;13.85;;;8.48;;
54464;SDS011;40374;49.480;20.016;2023-06-26T04:18:56;21.05;;;9.50;;
54464;SDS011;40374;49.480;20.016;2023-06-26T04:21:26;18.75;;;8.55;;
54464;SDS011;40374;49.480;20.016;2023-06-26T04:23:54;16.35;;;8.63;;
54464;SDS011;40374;49.480;20.016;2023-06-26T04:26:23;13.25;;;8.35;;
54464;SDS011;40374;49.480;20.016;2023-06-26T04:28:51;13.98;;;7.82;;
54464;SDS011;40374;49.480;20.016;2023-06-26T04:31:20;16.38;;;8.70;;
54464;SDS011;40374;49.480;20.016;2023-06-26T04:33:49;16.98;;;8.93;;
54464;SDS011;40374;49.480;20.016;2023-06-26T04:36:19;15.60;;;8.15;;
54464;SDS011;40374;49.480;20.016;2023-06-26T04:38:47;11.52;;;7.60;;
54464;SDS011;40374;49.480;20.016;2023-06-26T04:41:18;13.48;;;8.15;;
54464;SDS011;40374;49.480;20.016;2023-06-26T04:43:45;17.08;;;7.72;;
54464;SDS011;40374;49.480;20.016;2023-06-26T04:46:13;12.18;;;7.40;;
54464;SDS011;40374;49.480;20.016;2023-06-26T04:48:43;9.75;;;7.22;;
54464;SDS011;40374;49.480;20.016;2023-06-26T04:51:14;13.05;;;7.45;;
54464;SDS011;40374;49.480;20.016;2023-06-26T04:53:41;10.50;;;7.05;;
54464;SDS011;40374;49.480;20.016;2023-06-26T04:56:10;12.88;;;7.40;;
54464;SDS011;40374;49.480;20.016;2023-06-26T04:58:38;17.83;;;7.30;;
54464;SDS011;40374;49.480;20.016;2023-06-26T05:01:06;11.60;;;7.35;;
54464;SDS011;40374;49.480;20.016;2023-06-26T05:03:33;17.63;;;8.48;;
54464;SDS011;40374;49.480;20.016;2023-06-26T05:06:02;18.55;;;8.63;;
54464;SDS011;40374;49.480;20.016;2023-06-26T05:08:35;13.38;;;8.20;;
54464;SDS011;40374;49.480;20.016;2023-06-26T05:11:03;16.80;;;8.10;;
54464;SDS011;40374;49.480;20.016;2023-06-26T05:13:31;14.52;;;6.82;;
54464;SDS011;40374;49.480;20.016;2023-06-26T05:15:59;11.95;;;6.35;;
54464;SDS011;40374;49.480;20.016;2023-06-26T05:18:27;10.27;;;6.18;;
54464;SDS011;40374;49.480;20.016;2023-06-26T05:20:55;12.80;;;6.85;;
54464;SDS011;40374;49.480;20.016;2023-06-26T05:23:22;8.88;;;6.32;;
54464;SDS011;40374;49.480;20.016;2023-06-26T05:25:52;9.90;;;6.57;;
54464;SDS011;40374;49.480;20.016;2023-06-26T05:28:20;10.80;;;6.32;;
54464;SDS011;40374;49.480;20.016;2023-06-26T05:30:49;9.40;;;6.15;;
54464;SDS011;40374;49.480;20.016;2023-06-26T05:33:17;11.93;;;6.18;;
54464;SDS011;40374;49.480;20.016;2023-06-26T05:35:47;15.18;;;6.65;;
54464;SDS011;40374;49.480;20.016;2023-06-26T05:38:15;11.70;;;6.45;;
54464;SDS011;40374;49.480;20.016;2023-06-26T05:40:43;19.10;;;7.07;;
54464;SDS011;40374;49.480;20.016;2023-06-26T05:43:11;12.90;;;6.95;;
54464;SDS011;40374;49.480;20.016;2023-06-26T05:45:39;15.02;;;7.80;;
54464;SDS011;40374;49.480;20.016;2023-06-26T05:48:07;13.70;;;6.82;;
54464;SDS011;40374;49.480;20.016;2023-06-26T05:50:35;14.45;;;6.80;;
54464;SDS011;40374;49.480;20.016;2023-06-26T05:53:03;8.90;;;6.28;;
54464;SDS011;40374;49.480;20.016;2023-06-26T05:55:32;12.52;;;6.70;;
54464;SDS011;40374;49.480;20.016;2023-06-26T05:58:00;11.00;;;6.95;;
54464;SDS011;40374;49.480;20.016;2023-06-26T06:00:29;12.50;;;6.97;;
54464;SDS011;40374;49.480;20.016;2023-06-26T06:02:57;15.60;;;6.80;;
54464;SDS011;40374;49.480;20.016;2023-06-26T06:05:25;12.80;;;6.90;;
54464;SDS011;40374;49.480;20.016;2023-06-26T06:07:55;13.38;;;6.43;;
54464;SDS011;40374;49.480;20.016;2023-06-26T06:10:22;10.70;;;5.90;;
54464;SDS011;40374;49.480;20.016;2023-06-26T06:12:52;13.90;;;6.88;;
54464;SDS011;40374;49.480;20.016;2023-06-26T06:15:21;11.77;;;6.82;;
54464;SDS011;40374;49.480;20.016;2023-06-26T06:17:49;8.55;;;6.55;;
54464;SDS011;40374;49.480;20.016;2023-06-26T06:20:17;10.23;;;5.82;;
54464;SDS011;40374;49.480;20.016;2023-06-26T06:22:46;18.60;;;7.03;;
54464;SDS011;40374;49.480;20.016;2023-06-26T06:25:15;12.65;;;6.78;;
54464;SDS011;40374;49.480;20.016;2023-06-26T06:27:43;13.57;;;7.40;;
54464;SDS011;40374;49.480;20.016;2023-06-26T06:30:11;8.30;;;6.10;;
54464;SDS011;40374;49.480;20.016;2023-06-26T06:32:39;10.43;;;6.03;;
54464;SDS011;40374;49.480;20.016;2023-06-26T06:35:07;12.13;;;6.53;;
54464;SDS011;40374;49.480;20.016;2023-06-26T06:37:38;21.30;;;8.00;;
54464;SDS011;40374;49.480;20.016;2023-06-26T06:40:06;13.80;;;6.70;;
54464;SDS011;40374;49.480;20.016;2023-06-26T06:42:33;11.57;;;5.97;;
54464;SDS011;40374;49.480;20.016;2023-06-26T06:45:02;14.40;;;6.43;;
54464;SDS011;40374;49.480;20.016;2023-06-26T06:47:30;9.73;;;5.70;;
54464;SDS011;40374;49.480;20.016;2023-06-26T06:49:59;15.63;;;6.22;;
54464;SDS011;40374;49.480;20.016;2023-06-26T06:52:38;10.27;;;6.25;;
54464;SDS011;40374;49.480;20.016;2023-06-26T06:55:07;12.57;;;5.57;;
54464;SDS011;40374;49.480;20.016;2023-06-26T06:57:36;8.40;;;5.13;;
54464;SDS011;40374;49.480;20.016;2023-06-26T07:00:06;8.95;;;4.97;;
54464;SDS011;40374;49.480;20.016;2023-06-26T07:02:38;7.63;;;5.25;;
54464;SDS011;40374;49.480;20.016;2023-06-26T07:05:07;8.82;;;5.75;;
54464;SDS011;40374;49.480;20.016;2023-06-26T07:07:35;10.80;;;5.47;;
54464;SDS011;40374;49.480;20.016;2023-06-26T07:10:05;11.10;;;4.60;;
54464;SDS011;40374;49.480;20.016;2023-06-26T07:12:37;7.85;;;5.00;;
54464;SDS011;40374;49.480;20.016;2023-06-26T07:15:07;11.10;;;4.88;;
54464;SDS011;40374;49.480;20.016;2023-06-26T07:17:35;10.70;;;4.90;;
54464;SDS011;40374;49.480;20.016;2023-06-26T07:20:03;8.07;;;4.63;;
54464;SDS011;40374;49.480;20.016;2023-06-26T07:22:36;10.35;;;5.25;;
54464;SDS011;40374;49.480;20.016;2023-06-26T07:25:04;10.73;;;5.07;;
54464;SDS011;40374;49.480;20.016;2023-06-26T07:27:37;8.40;;;4.53;;
54464;SDS011;40374;49.480;20.016;2023-06-26T07:30:05;9.20;;;4.50;;
54464;SDS011;40374;49.480;20.016;2023-06-26T07:32:36;10.05;;;4.53;;
54464;SDS011;40374;49.480;20.016;2023-06-26T07:35:04;8.18;;;4.78;;
54464;SDS011;40374;49.480;20.016;2023-06-26T07:37:32;11.30;;;4.78;;
54464;SDS011;40374;49.480;20.016;2023-06-26T07:40:00;9.65;;;4.78;;
54464;SDS011;40374;49.480;20.016;2023-06-26T07:42:28;9.60;;;4.43;;
54464;SDS011;40374;49.480;20.016;2023-06-26T07:44:56;5.93;;;3.80;;
54464;SDS011;40374;49.480;20.016;2023-06-26T07:47:23;7.72;;;4.20;;
54464;SDS011;40374;49.480;20.016;2023-06-26T07:49:51;7.25;;;4.65;;
54464;SDS011;40374;49.480;20.016;2023-06-26T07:52:18;13.65;;;4.45;;
54464;SDS011;40374;49.480;20.016;2023-06-26T07:54:47;8.82;;;4.43;;
54464;SDS011;40374;49.480;20.016;2023-06-26T07:57:14;11.50;;;5.10;;
54464;SDS011;40374;49.480;20.016;2023-06-26T07:59:42;7.65;;;4.72;;
54464;SDS011;40374;49.480;20.016;2023-06-26T08:02:09;9.38;;;4.40;;
54464;SDS011;40374;49.480;20.016;2023-06-26T08:04:37;8.65;;;4.90;;
54464;SDS011;40374;49.480;20.016;2023-06-26T08:07:05;6.57;;;4.82;;
54464;SDS011;40374;49.480;20.016;2023-06-26T08:09:33;8.48;;;5.10;;
54464;SDS011;40374;49.480;20.016;2023-06-26T08:12:00;11.20;;;5.32;;
54464;SDS011;40374;49.480;20.016;2023-06-26T08:14:28;7.93;;;5.25;;
54464;SDS011;40374;49.480;20.016;2023-06-26T08:16:55;10.13;;;4.60;;
54464;SDS011;40374;49.480;20.016;2023-06-26T08:19:23;7.75;;;4.85;;
54464;SDS011;40374;49.480;20.016;2023-06-26T08:21:51;7.80;;;4.85;;
54464;SDS011;40374;49.480;20.016;2023-06-26T08:24:20;7.55;;;4.45;;
54464;SDS011;40374;49.480;20.016;2023-06-26T08:26:47;10.43;;;5.95;;
54464;SDS011;40374;49.480;20.016;2023-06-26T08:29:15;11.32;;;6.30;;
54464;SDS011;40374;49.480;20.016;2023-06-26T08:31:43;9.75;;;4.85;;
54464;SDS011;40374;49.480;20.016;2023-06-26T08:34:11;6.85;;;4.80;;
54464;SDS011;40374;49.480;20.016;2023-06-26T08:36:38;8.70;;;4.97;;
54464;SDS011;40374;49.480;20.016;2023-06-26T08:39:06;7.95;;;4.97;;
54464;SDS011;40374;49.480;20.016;2023-06-26T08:41:35;10.50;;;4.82;;
54464;SDS011;40374;49.480;20.016;2023-06-26T08:44:03;9.23;;;4.60;;
54464;SDS011;40374;49.480;20.016;2023-06-26T08:46:32;7.50;;;4.80;;
54464;SDS011;40374;49.480;20.016;2023-06-26T08:49:01;9.63;;;4.60;;
54464;SDS011;40374;49.480;20.016;2023-06-26T08:51:45;9.30;;;4.93;;
54464;SDS011;40374;49.480;20.016;2023-06-26T08:54:20;8.10;;;5.00;;
54464;SDS011;40374;49.480;20.016;2023-06-26T08:56:55;9.68;;;5.00;;
54464;SDS011;40374;49.480;20.016;2023-06-26T08:59:25;9.95;;;5.25;;
54464;SDS011;40374;49.480;20.016;2023-06-26T09:01:52;8.35;;;5.43;;
54464;SDS011;40374;49.480;20.016;2023-06-26T09:04:20;7.10;;;4.78;;
54464;SDS011;40374;49.480;20.016;2023-06-26T09:06:51;6.97;;;5.05;;
54464;SDS011;40374;49.480;20.016;2023-06-26T09:09:18;9.15;;;4.45;;
54464;SDS011;40374;49.480;20.016;2023-06-26T09:11:46;8.73;;;4.60;;
54464;SDS011;40374;49.480;20.016;2023-06-26T09:14:13;9.65;;;4.35;;
54464;SDS011;40374;49.480;20.016;2023-06-26T09:16:41;5.88;;;3.95;;
54464;SDS011;40374;49.480;20.016;2023-06-26T09:19:10;5.38;;;3.92;;
54464;SDS011;40374;49.480;20.016;2023-06-26T09:21:39;8.55;;;4.60;;
54464;SDS011;40374;49.480;20.016;2023-06-26T09:24:07;5.40;;;3.90;;
54464;SDS011;40374;49.480;20.016;2023-06-26T09:26:36;11.07;;;4.20;;
54464;SDS011;40374;49.480;20.016;2023-06-26T09:29:05;5.00;;;3.67;;
54464;SDS011;40374;49.480;20.016;2023-06-26T09:31:33;5.93;;;3.95;;
54464;SDS011;40374;49.480;20.016;2023-06-26T09:34:08;6.63;;;3.38;;
54464;SDS011;40374;49.480;20.016;2023-06-26T09:36:36;9.07;;;3.60;;
54464;SDS011;40374;49.480;20.016;2023-06-26T09:39:07;9.80;;;3.83;;
54464;SDS011;40374;49.480;20.016;2023-06-26T09:41:43;7.35;;;3.95;;
54464;SDS011;40374;49.480;20.016;2023-06-26T09:44:13;6.45;;;4.22;;
54464;SDS011;40374;49.480;20.016;2023-06-26T09:46:44;6.72;;;3.72;;
54464;SDS011;40374;49.480;20.016;2023-06-26T09:49:13;10.45;;;4.28;;
54464;SDS011;40374;49.480;20.016;2023-06-26T09:51:40;6.40;;;3.70;;
54464;SDS011;40374;49.480;20.016;2023-06-26T09:54:09;4.97;;;3.97;;
54464;SDS011;40374;49.480;20.016;2023-06-26T09:56:36;8.05;;;3.58;;
54464;SDS011;40374;49.480;20.016;2023-06-26T09:59:05;4.55;;;3.25;;
54464;SDS011;40374;49.480;20.016;2023-06-26T10:01:33;4.43;;;3.85;;
54464;SDS011;40374;49.480;20.016;2023-06-26T10:04:05;6.70;;;4.03;;
54464;SDS011;40374;49.480;20.016;2023-06-26T10:06:35;6.40;;;3.90;;
54464;SDS011;40374;49.480;20.016;2023-06-26T10:09:04;4.90;;;3.80;;
54464;SDS011;40374;49.480;20.016;2023-06-26T10:12:17;5.63;;;3.38;;
54464;SDS011;40374;49.480;20.016;2023-06-26T10:14:41;5.70;;;3.95;;
54464;SDS011;40374;49.480;20.016;2023-06-26T10:17:15;4.53;;;3.65;;
54464;SDS011;40374;49.480;20.016;2023-06-26T10:19:46;6.13;;;3.55;;
54464;SDS011;40374;49.480;20.016;2023-06-26T10:24:53;9.70;;;4.57;;
54464;SDS011;40374;49.480;20.016;2023-06-26T10:27:25;8.90;;;4.15;;
54464;SDS011;40374;49.480;20.016;2023-06-26T10:29:55;9.30;;;3.80;;
54464;SDS011;40374;49.480;20.016;2023-06-26T10:32:30;5.40;;;3.90;;
54464;SDS011;40374;49.480;20.016;2023-06-26T10:34:58;4.80;;;3.58;;
54464;SDS011;40374;49.480;20.016;2023-06-26T10:40:26;6.75;;;4.40;;
54464;SDS011;40374;49.480;20.016;2023-06-26T10:43:07;9.07;;;4.68;;
54464;SDS011;40374;49.480;20.016;2023-06-26T10:45:36;9.38;;;4.50;;
54464;SDS011;40374;49.480;20.016;2023-06-26T10:48:04;12.30;;;3.88;;
54464;SDS011;40374;49.480;20.016;2023-06-26T10:50:32;7.35;;;4.28;;
54464;SDS011;40374;49.480;20.016;2023-06-26T10:55:50;4.72;;;4.00;;
54464;SDS011;40374;49.480;20.016;2023-06-26T11:03:40;6.80;;;3.65;;
54464;SDS011;40374;49.480;20.016;2023-06-26T11:06:11;6.72;;;4.25;;
54464;SDS011;40374;49.480;20.016;2023-06-26T11:09:14;8.27;;;3.72;;
54464;SDS011;40374;49.480;20.016;2023-06-26T11:14:32;3.35;;;3.05;;
54464;SDS011;40374;49.480;20.016;2023-06-26T11:17:02;4.00;;;3.60;;
54464;SDS011;40374;49.480;20.016;2023-06-26T11:19:30;4.32;;;3.03;;
54464;SDS011;40374;49.480;20.016;2023-06-26T11:21:59;5.53;;;3.65;;
54464;SDS011;40374;49.480;20.016;2023-06-26T11:24:29;5.95;;;3.13;;
54464;SDS011;40374;49.480;20.016;2023-06-26T11:27:01;6.78;;;3.50;;
54464;SDS011;40374;49.480;20.016;2023-06-26T11:29:30;6.75;;;3.53;;
54464;SDS011;40374;49.480;20.016;2023-06-26T11:31:59;12.15;;;3.53;;
54464;SDS011;40374;49.480;20.016;2023-06-26T11:34:32;5.20;;;3.67;;
54464;SDS011;40374;49.480;20.016;2023-06-26T11:37:00;6.10;;;3.25;;
54464;SDS011;40374;49.480;20.016;2023-06-26T11:39:29;4.93;;;3.55;;
54464;SDS011;40374;49.480;20.016;2023-06-26T11:41:56;3.67;;;3.38;;
54464;SDS011;40374;49.480;20.016;2023-06-26T11:44:24;6.07;;;3.47;;
54464;SDS011;40374;49.480;20.016;2023-06-26T11:46:57;3.38;;;3.08;;
54464;SDS011;40374;49.480;20.016;2023-06-26T11:49:25;4.47;;;3.28;;
54464;SDS011;40374;49.480;20.016;2023-06-26T11:51:53;4.18;;;3.22;;
54464;SDS011;40374;49.480;20.016;2023-06-26T11:57:07;7.82;;;3.40;;
54464;SDS011;40374;49.480;20.016;2023-06-26T11:59:39;5.88;;;3.58;;
54464;SDS011;40374;49.480;20.016;2023-06-26T12:02:08;11.07;;;4.43;;
54464;SDS011;40374;49.480;20.016;2023-06-26T12:04:38;8.00;;;4.00;;
54464;SDS011;40374;49.480;20.016;2023-06-26T12:07:08;7.53;;;3.60;;
54464;SDS011;40374;49.480;20.016;2023-06-26T12:09:43;4.43;;;3.63;;
54464;SDS011;40374;49.480;20.016;2023-06-26T12:12:14;4.45;;;3.67;;
54464;SDS011;40374;49.480;20.016;2023-06-26T12:14:44;4.40;;;3.47;;
54464;SDS011;40374;49.480;20.016;2023-06-26T12:17:14;4.10;;;3.72;;
54464;SDS011;40374;49.480;20.016;2023-06-26T12:19:43;8.02;;;3.90;;
54464;SDS011;40374;49.480;20.016;2023-06-26T12:22:12;6.60;;;3.63;;
54464;SDS011;40374;49.480;20.016;2023-06-26T12:24:39;4.07;;;3.50;;
54464;SDS011;40374;49.480;20.016;2023-06-26T12:27:08;5.53;;;3.13;;
54464;SDS011;40374;49.480;20.016;2023-06-26T12:29:38;4.20;;;3.70;;
54464;SDS011;40374;49.480;20.016;2023-06-26T12:32:10;4.38;;;3.05;;
54464;SDS011;40374;49.480;20.016;2023-06-26T12:34:38;4.13;;;3.65;;
54464;SDS011;40374;49.480;20.016;2023-06-26T12:37:08;5.80;;;3.42;;
54464;SDS011;40374;49.480;20.016;2023-06-26T12:42:25;6.05;;;3.50;;
54464;SDS011;40374;49.480;20.016;2023-06-26T12:44:55;4.25;;;3.60;;
54464;SDS011;40374;49.480;20.016;2023-06-26T12:47:26;3.63;;;3.20;;
54464;SDS011;40374;49.480;20.016;2023-06-26T12:49:56;5.60;;;3.58;;
54464;SDS011;40374;49.480;20.016;2023-06-26T12:52:24;5.65;;;3.00;;
54464;SDS011;40374;49.480;20.016;2023-06-26T12:54:53;4.32;;;3.00;;
54464;SDS011;40374;49.480;20.016;2023-06-26T12:57:23;7.65;;;3.10;;
54464;SDS011;40374;49.480;20.016;2023-06-26T12:59:51;4.28;;;2.85;;
54464;SDS011;40374;49.480;20.016;2023-06-26T13:02:19;3.33;;;3.05;;
54464;SDS011;40374;49.480;20.016;2023-06-26T13:04:47;3.13;;;2.90;;
54464;SDS011;40374;49.480;20.016;2023-06-26T13:07:15;3.33;;;2.95;;
54464;SDS011;40374;49.480;20.016;2023-06-26T13:09:43;10.15;;;3.35;;
54464;SDS011;40374;49.480;20.016;2023-06-26T13:12:12;3.92;;;2.95;;
54464;SDS011;40374;49.480;20.016;2023-06-26T13:14:40;6.40;;;3.55;;
54464;SDS011;40374;49.480;20.016;2023-06-26T13:17:08;6.38;;;3.45;;
54464;SDS011;40374;49.480;20.016;2023-06-26T13:19:36;4.95;;;3.28;;
54464;SDS011;40374;49.480;20.016;2023-06-26T13:22:04;4.13;;;3.40;;
54464;SDS011;40374;49.480;20.016;2023-06-26T13:24:31;5.32;;;3.42;;
54464;SDS011;40374;49.480;20.016;2023-06-26T13:26:59;4.32;;;3.17;;
54464;SDS011;40374;49.480;20.016;2023-06-26T13:29:27;8.32;;;3.92;;
54464;SDS011;40374;49.480;20.016;2023-06-26T13:31:55;3.88;;;3.00;;
54464;SDS011;40374;49.480;20.016;2023-06-26T13:34:24;3.92;;;3.63;;
54464;SDS011;40374;49.480;20.016;2023-06-26T13:36:56;5.57;;;3.35;;
54464;SDS011;40374;49.480;20.016;2023-06-26T13:39:27;6.22;;;3.28;;
54464;SDS011;40374;49.480;20.016;2023-06-26T13:41:55;6.35;;;3.35;;
54464;SDS011;40374;49.480;20.016;2023-06-26T13:44:23;8.10;;;3.42;;
54464;SDS011;40374;49.480;20.016;2023-06-26T13:47:04;6.05;;;3.38;;
54464;SDS011;40374;49.480;20.016;2023-06-26T13:49:33;7.38;;;3.95;;
54464;SDS011;40374;49.480;20.016;2023-06-26T13:52:00;5.65;;;3.35;;
54464;SDS011;40374;49.480;20.016;2023-06-26T13:54:28;4.38;;;3.72;;
54464;SDS011;40374;49.480;20.016;2023-06-26T13:56:55;3.80;;;3.40;;
54464;SDS011;40374;49.480;20.016;2023-06-26T13:59:24;5.95;;;3.53;;
54464;SDS011;40374;49.480;20.016;2023-06-26T14:01:52;4.47;;;3.70;;
54464;SDS011;40374;49.480;20.016;2023-06-26T14:04:20;5.82;;;3.53;;
54464;SDS011;40374;49.480;20.016;2023-06-26T14:06:48;6.43;;;3.58;;
54464;SDS011;40374;49.480;20.016;2023-06-26T14:09:16;7.00;;;3.78;;
54464;SDS011;40374;49.480;20.016;2023-06-26T14:11:44;5.22;;;3.53;;
54464;SDS011;40374;49.480;20.016;2023-06-26T14:14:12;3.97;;;3.33;;
54464;SDS011;40374;49.480;20.016;2023-06-26T14:16:41;4.72;;;3.72;;
54464;SDS011;40374;49.480;20.016;2023-06-26T14:20:47;6.75;;;3.38;;
54464;SDS011;40374;49.480;20.016;2023-06-26T14:23:15;6.32;;;3.90;;
54464;SDS011;40374;49.480;20.016;2023-06-26T14:25:44;5.00;;;3.67;;
54464;SDS011;40374;49.480;20.016;2023-06-26T14:28:15;5.90;;;4.07;;
54464;SDS011;40374;49.480;20.016;2023-06-26T14:30:43;7.72;;;3.72;;
54464;SDS011;40374;49.480;20.016;2023-06-26T14:33:11;5.95;;;3.85;;
54464;SDS011;40374;49.480;20.016;2023-06-26T14:35:38;8.52;;;3.95;;
54464;SDS011;40374;49.480;20.016;2023-06-26T14:38:06;6.10;;;3.40;;
54464;SDS011;40374;49.480;20.016;2023-06-26T14:40:33;4.82;;;3.85;;
54464;SDS011;40374;49.480;20.016;2023-06-26T14:43:01;6.28;;;3.67;;
54464;SDS011;40374;49.480;20.016;2023-06-26T14:45:29;5.85;;;4.07;;
54464;SDS011;40374;49.480;20.016;2023-06-26T14:47:59;3.88;;;3.50;;
54464;SDS011;40374;49.480;20.016;2023-06-26T14:50:26;6.03;;;3.83;;
54464;SDS011;40374;49.480;20.016;2023-06-26T14:52:54;5.82;;;3.40;;
54464;SDS011;40374;49.480;20.016;2023-06-26T14:55:21;6.00;;;3.90;;
54464;SDS011;40374;49.480;20.016;2023-06-26T14:57:49;8.52;;;3.70;;
54464;SDS011;40374;49.480;20.016;2023-06-26T15:00:17;4.95;;;4.20;;
54464;SDS011;40374;49.480;20.016;2023-06-26T15:10:36;5.38;;;3.72;;
54464;SDS011;40374;49.480;20.016;2023-06-26T15:13:04;6.32;;;3.85;;
54464;SDS011;40374;49.480;20.016;2023-06-26T15:15:32;3.83;;;3.45;;
54464;SDS011;40374;49.480;20.016;2023-06-26T15:18:01;7.57;;;3.50;;
54464;SDS011;40374;49.480;20.016;2023-06-26T15:20:29;6.40;;;4.45;;
54464;SDS011;40374;49.480;20.016;2023-06-26T15:22:57;8.32;;;3.63;;
54464;SDS011;40374;49.480;20.016;2023-06-26T15:25:25;6.95;;;3.70;;
54464;SDS011;40374;49.480;20.016;2023-06-26T15:27:53;5.72;;;4.07;;
54464;SDS011;40374;49.480;20.016;2023-06-26T15:30:21;5.40;;;4.28;;
54464;SDS011;40374;49.480;20.016;2023-06-26T15:32:48;5.60;;;4.25;;
54464;SDS011;40374;49.480;20.016;2023-06-26T15:35:16;6.07;;;3.90;;
54464;SDS011;40374;49.480;20.016;2023-06-26T15:37:44;6.53;;;3.78;;
54464;SDS011;40374;49.480;20.016;2023-06-26T15:40:11;8.85;;;4.07;;
54464;SDS011;40374;49.480;20.016;2023-06-26T15:42:45;10.18;;;4.35;;
54464;SDS011;40374;49.480;20.016;2023-06-26T15:45:14;7.38;;;4.55;;
54464;SDS011;40374;49.480;20.016;2023-06-26T15:47:43;4.43;;;3.97;;
54464;SDS011;40374;49.480;20.016;2023-06-26T15:50:11;4.43;;;3.33;;